createdAt,value
2022-09-02T00:00:14.219Z,0.00
2022-09-02T00:01:13.929Z,0.00
2022-09-02T00:02:14.118Z,0.00
2022-09-02T00:03:14.106Z,0.00
2022-09-02T00:04:14.089Z,0.00
2022-09-02T00:05:13.884Z,0.00
2022-09-02T00:06:13.908Z,0.00
2022-09-02T00:07:13.883Z,0.00
2022-09-02T00:08:13.899Z,0.00
2022-09-02T00:09:13.828Z,0.00
2022-09-02T00:10:13.842Z,0.00
2022-09-02T00:11:13.819Z,0.00
2022-09-02T00:12:13.822Z,0.00
2022-09-02T00:13:13.801Z,0.00
2022-09-02T00:14:13.824Z,0.00
2022-09-02T00:15:13.770Z,0.00
2022-09-02T00:16:13.800Z,0.00
2022-09-02T00:17:13.744Z,0.00
2022-09-02T00:18:15.544Z,0.00
2022-09-02T00:19:13.727Z,0.00
2022-09-02T00:20:13.776Z,0.00
2022-09-02T00:21:13.709Z,0.00
2022-09-02T00:22:13.686Z,0.00
2022-09-02T00:23:13.766Z,0.00
2022-09-02T00:24:13.765Z,0.00
2022-09-02T00:25:13.664Z,0.00
2022-09-02T00:26:13.668Z,0.00
2022-09-02T00:27:13.614Z,0.00
2022-09-02T00:28:13.665Z,0.00
2022-09-02T00:29:13.594Z,0.00
2022-09-02T00:30:13.618Z,0.00
2022-09-02T00:31:13.602Z,0.00
2022-09-02T00:32:13.588Z,0.00
2022-09-02T00:33:13.600Z,0.00
2022-09-02T00:34:13.589Z,0.00
2022-09-02T00:35:13.559Z,0.00
2022-09-02T00:36:13.546Z,0.00
2022-09-02T00:37:13.511Z,0.00
2022-09-02T00:38:13.540Z,0.00
2022-09-02T00:39:13.488Z,0.00
2022-09-02T00:40:13.666Z,0.00
2022-09-02T00:41:13.490Z,0.00
2022-09-02T00:42:13.464Z,0.00
2022-09-02T00:43:13.553Z,0.00
2022-09-02T00:44:13.460Z,0.00
2022-09-02T00:45:13.420Z,0.00
2022-09-02T00:46:13.423Z,0.00
2022-09-02T00:47:13.391Z,0.00
2022-09-02T00:48:13.442Z,0.00
2022-09-02T00:49:13.371Z,0.00
2022-09-02T00:50:13.376Z,0.00
2022-09-02T00:51:13.340Z,0.00
2022-09-02T00:52:13.341Z,0.00
2022-09-02T00:53:13.375Z,0.00
2022-09-02T00:54:13.321Z,0.00
2022-09-02T00:55:13.312Z,0.00
2022-09-02T00:56:13.294Z,0.00
2022-09-02T00:57:13.281Z,0.00
2022-09-02T00:58:13.287Z,0.00
2022-09-02T00:59:13.264Z,0.00
2022-09-02T01:00:13.866Z,0.00
2022-09-02T01:01:13.381Z,0.00
2022-09-02T01:02:13.317Z,0.00
2022-09-02T01:03:13.215Z,0.00
2022-09-02T01:04:13.248Z,0.00
2022-09-02T01:05:13.233Z,0.00
2022-09-02T01:06:13.193Z,0.00
2022-09-02T01:07:13.215Z,0.00
2022-09-02T01:08:13.165Z,0.00
2022-09-02T01:09:13.144Z,0.00
2022-09-02T01:10:13.265Z,0.00
2022-09-02T01:11:13.140Z,0.00
2022-09-02T01:12:13.155Z,0.00
2022-09-02T01:13:13.149Z,0.00
2022-09-02T01:14:13.106Z,0.00
2022-09-02T01:15:13.124Z,0.00
2022-09-02T01:16:13.164Z,0.00
2022-09-02T01:17:13.060Z,0.00
2022-09-02T01:18:13.088Z,0.00
2022-09-02T01:19:13.040Z,0.00
2022-09-02T01:20:13.061Z,0.00
2022-09-02T01:21:13.015Z,0.00
2022-09-02T01:22:13.017Z,0.00
2022-09-02T01:23:13.013Z,0.00
2022-09-02T01:24:13.012Z,0.00
2022-09-02T01:25:12.979Z,0.00
2022-09-02T01:26:13.015Z,0.00
2022-09-02T01:27:12.948Z,0.00
2022-09-02T01:28:12.950Z,0.00
2022-09-02T01:29:12.932Z,0.00
2022-09-02T01:30:12.940Z,0.00
2022-09-02T01:31:12.990Z,0.00
2022-09-02T01:32:12.951Z,0.00
2022-09-02T01:33:12.917Z,0.00
2022-09-02T01:34:12.923Z,0.00
2022-09-02T01:35:12.893Z,0.00
2022-09-02T01:36:12.863Z,0.00
2022-09-02T01:37:12.844Z,0.00
2022-09-02T01:38:12.897Z,0.00
2022-09-02T01:39:12.834Z,0.00
2022-09-02T01:40:12.857Z,0.00
2022-09-02T01:41:12.865Z,0.00
2022-09-02T01:42:12.805Z,0.00
2022-09-02T01:43:12.805Z,0.00
2022-09-02T01:44:12.841Z,0.00
2022-09-02T01:45:12.845Z,0.00
2022-09-02T01:46:12.803Z,0.00
2022-09-02T01:47:12.745Z,0.00
2022-09-02T01:48:12.773Z,0.00
2022-09-02T01:49:12.723Z,0.00
2022-09-02T01:50:12.767Z,0.00
2022-09-02T01:51:12.696Z,0.00
2022-09-02T01:52:12.685Z,0.00
2022-09-02T01:53:12.689Z,0.00
2022-09-02T01:54:12.666Z,0.00
2022-09-02T01:55:12.687Z,0.00
2022-09-02T01:56:12.647Z,0.00
2022-09-02T01:57:12.628Z,0.00
2022-09-02T01:58:12.668Z,0.00
2022-09-02T01:59:12.611Z,0.00
2022-09-02T02:00:12.663Z,0.00
2022-09-02T02:01:12.702Z,0.00
2022-09-02T02:02:12.721Z,0.00
2022-09-02T02:03:12.560Z,0.00
2022-09-02T02:04:13.588Z,0.00
2022-09-02T02:05:12.821Z,0.00
2022-09-02T02:06:12.622Z,0.00
2022-09-02T02:07:12.529Z,0.00
2022-09-02T02:08:12.522Z,0.00
2022-09-02T02:09:12.502Z,0.00
2022-09-02T02:10:12.621Z,0.00
2022-09-02T02:11:12.484Z,0.00
2022-09-02T02:12:12.481Z,0.00
2022-09-02T02:13:12.460Z,0.00
2022-09-02T02:14:12.484Z,0.00
2022-09-02T02:15:12.453Z,0.00
2022-09-02T02:16:12.523Z,0.00
2022-09-02T02:17:12.421Z,0.00
2022-09-02T02:18:12.435Z,0.00
2022-09-02T02:19:12.453Z,0.00
2022-09-02T02:20:12.404Z,0.00
2022-09-02T02:21:12.383Z,0.00
2022-09-02T02:22:12.375Z,0.00
2022-09-02T02:23:12.375Z,0.00
2022-09-02T02:24:12.386Z,0.00
2022-09-02T02:25:12.326Z,0.00
2022-09-02T02:26:12.405Z,0.00
2022-09-02T02:27:12.316Z,0.00
2022-09-02T02:28:12.296Z,0.00
2022-09-02T02:29:12.278Z,0.00
2022-09-02T02:30:12.286Z,0.00
2022-09-02T02:31:12.324Z,0.00
2022-09-02T02:32:12.262Z,0.00
2022-09-02T02:33:12.238Z,0.00
2022-09-02T02:34:12.289Z,0.00
2022-09-02T02:35:12.228Z,0.00
2022-09-02T02:36:12.290Z,0.00
2022-09-02T02:37:12.199Z,0.00
2022-09-02T02:38:13.346Z,0.00
2022-09-02T02:39:12.179Z,0.00
2022-09-02T02:40:12.231Z,0.00
2022-09-02T02:41:12.179Z,0.00
2022-09-02T02:42:12.155Z,0.00
2022-09-02T02:43:12.131Z,0.00
2022-09-02T02:44:12.141Z,0.00
2022-09-02T02:45:15.168Z,0.00
2022-09-02T02:46:12.259Z,0.00
2022-09-02T02:47:12.111Z,0.00
2022-09-02T02:48:12.172Z,0.00
2022-09-02T02:49:12.071Z,0.00
2022-09-02T02:50:12.102Z,0.00
2022-09-02T02:51:12.051Z,0.00
2022-09-02T02:52:12.088Z,0.00
2022-09-02T02:53:13.235Z,0.00
2022-09-02T02:54:12.064Z,0.00
2022-09-02T02:55:12.013Z,0.00
2022-09-02T02:56:12.063Z,0.00
2022-09-02T02:57:11.994Z,0.00
2022-09-02T02:58:11.994Z,0.00
2022-09-02T02:59:11.965Z,0.00
2022-09-02T03:00:11.969Z,0.00
2022-09-02T03:01:11.934Z,0.00
2022-09-02T03:02:12.089Z,0.00
2022-09-02T03:03:11.956Z,0.00
2022-09-02T03:04:11.925Z,0.00
2022-09-02T03:05:11.923Z,0.00
2022-09-02T03:06:11.956Z,0.00
2022-09-02T03:07:11.867Z,0.00
2022-09-02T03:08:11.870Z,0.00
2022-09-02T03:09:11.849Z,0.00
2022-09-02T03:10:11.858Z,0.00
2022-09-02T03:11:11.836Z,0.00
2022-09-02T03:12:11.828Z,0.00
2022-09-02T03:13:11.810Z,0.00
2022-09-02T03:14:11.860Z,0.00
2022-09-02T03:15:11.778Z,0.00
2022-09-02T03:16:11.858Z,0.00
2022-09-02T03:17:11.789Z,0.00
2022-09-02T03:18:11.821Z,0.00
2022-09-02T03:19:11.759Z,0.00
2022-09-02T03:20:11.770Z,0.00
2022-09-02T03:21:11.710Z,0.00
2022-09-02T03:22:11.714Z,0.00
2022-09-02T03:23:11.690Z,0.00
2022-09-02T03:24:11.705Z,0.00
2022-09-02T03:25:11.675Z,0.00
2022-09-02T03:26:11.723Z,0.00
2022-09-02T03:27:11.648Z,0.00
2022-09-02T03:28:11.712Z,0.00
2022-09-02T03:29:11.640Z,0.00
2022-09-02T03:30:11.627Z,0.00
2022-09-02T03:31:11.630Z,0.00
2022-09-02T03:32:11.650Z,0.00
2022-09-02T03:33:11.575Z,0.00
2022-09-02T03:34:11.585Z,0.00
2022-09-02T03:35:11.564Z,0.00
2022-09-02T03:36:11.593Z,0.00
2022-09-02T03:37:11.534Z,0.00
2022-09-02T03:38:11.558Z,0.00
2022-09-02T03:39:11.524Z,0.00
2022-09-02T03:40:11.564Z,0.00
2022-09-02T03:41:11.502Z,0.00
2022-09-02T03:42:15.152Z,0.00
2022-09-02T03:43:12.475Z,0.00
2022-09-02T03:44:11.541Z,0.00
2022-09-02T03:45:11.464Z,0.00
2022-09-02T03:46:11.507Z,0.00
2022-09-02T03:47:11.426Z,0.00
2022-09-02T03:48:11.417Z,0.00
2022-09-02T03:49:11.416Z,0.00
2022-09-02T03:50:11.413Z,0.00
2022-09-02T03:51:11.386Z,0.00
2022-09-02T03:52:11.438Z,0.00
2022-09-02T03:53:18.136Z,0.00
2022-09-02T03:54:12.388Z,0.00
2022-09-02T03:55:11.358Z,0.00
2022-09-02T03:56:11.379Z,0.00
2022-09-02T03:57:11.329Z,0.00
2022-09-02T03:58:11.349Z,0.00
2022-09-02T03:59:11.298Z,0.00
2022-09-02T04:00:11.349Z,0.00
2022-09-02T04:01:11.307Z,0.00
2022-09-02T04:02:11.382Z,0.00
2022-09-02T04:03:11.269Z,0.00
2022-09-02T04:04:11.375Z,0.00
2022-09-02T04:05:15.623Z,0.00
2022-09-02T04:06:11.261Z,0.00
2022-09-02T04:07:11.212Z,0.00
2022-09-02T04:08:11.274Z,0.00
2022-09-02T04:09:11.199Z,0.00
2022-09-02T04:10:11.186Z,0.00
2022-09-02T04:11:11.162Z,4.00
2022-09-02T04:12:11.179Z,4.00
2022-09-02T04:13:11.146Z,0.00
2022-09-02T04:14:11.321Z,4.00
2022-09-02T04:15:11.164Z,4.00
2022-09-02T04:16:11.205Z,4.00
2022-09-02T04:17:11.125Z,4.00
2022-09-02T04:18:11.124Z,8.00
2022-09-02T04:19:11.095Z,8.00
2022-09-02T04:20:11.086Z,8.00
2022-09-02T04:21:11.058Z,8.00
2022-09-02T04:22:11.089Z,12.00
2022-09-02T04:23:11.036Z,12.00
2022-09-02T04:24:11.079Z,16.00
2022-09-02T04:25:11.046Z,16.00
2022-09-02T04:26:11.006Z,20.00
2022-09-02T04:27:10.987Z,24.00
2022-09-02T04:28:11.018Z,28.00
2022-09-02T04:29:10.977Z,36.00
2022-09-02T04:30:11.053Z,40.00
2022-09-02T04:31:11.028Z,48.00
2022-09-02T04:32:11.239Z,52.00
2022-09-02T04:33:10.928Z,60.00
2022-09-02T04:34:10.951Z,72.00
2022-09-02T04:35:10.909Z,84.00
2022-09-02T04:36:12.830Z,96.00
2022-09-02T04:37:10.908Z,112.00
2022-09-02T04:38:10.934Z,128.00
2022-09-02T04:39:10.870Z,148.00
2022-09-02T04:40:11.154Z,168.00
2022-09-02T04:41:10.850Z,196.00
2022-09-02T04:42:10.869Z,220.00
2022-09-02T04:43:10.811Z,244.00
2022-09-02T04:44:10.932Z,276.00
2022-09-02T04:45:10.790Z,304.00
2022-09-02T04:46:10.998Z,336.00
2022-09-02T04:47:10.780Z,368.00
2022-09-02T04:48:10.862Z,400.00
2022-09-02T04:49:10.770Z,428.00
2022-09-02T04:50:10.802Z,460.00
2022-09-02T04:51:10.723Z,492.00
2022-09-02T04:52:10.729Z,524.00
2022-09-02T04:53:10.714Z,556.00
2022-09-02T04:54:10.716Z,592.00
2022-09-02T04:55:10.678Z,636.00
2022-09-02T04:56:10.794Z,688.00
2022-09-02T04:57:10.653Z,744.00
2022-09-02T04:58:10.669Z,808.00
2022-09-02T04:59:10.678Z,872.00
2022-09-02T05:00:10.741Z,940.00
2022-09-02T05:01:10.705Z,1008.00
2022-09-02T05:02:10.746Z,1084.00
2022-09-02T05:03:10.696Z,1164.00
2022-09-02T05:04:10.620Z,1240.00
2022-09-02T05:05:10.578Z,1312.00
2022-09-02T05:06:10.715Z,1380.00
2022-09-02T05:07:10.556Z,1432.00
2022-09-02T05:08:10.567Z,1488.00
2022-09-02T05:09:10.542Z,1544.00
2022-09-02T05:10:10.758Z,1600.00
2022-09-02T05:11:10.508Z,1672.00
2022-09-02T05:12:10.523Z,1760.00
2022-09-02T05:13:10.499Z,1848.00
2022-09-02T05:14:10.603Z,1952.00
2022-09-02T05:15:10.460Z,2052.00
2022-09-02T05:16:10.535Z,2156.00
2022-09-02T05:17:10.441Z,2272.00
2022-09-02T05:18:10.469Z,2392.00
2022-09-02T05:19:10.492Z,2512.00
2022-09-02T05:20:10.433Z,2640.00
2022-09-02T05:21:10.399Z,2772.00
2022-09-02T05:22:10.382Z,2900.00
2022-09-02T05:23:10.373Z,3020.00
2022-09-02T05:24:10.611Z,3128.00
2022-09-02T05:25:10.363Z,3240.00
2022-09-02T05:26:10.341Z,3344.00
2022-09-02T05:27:10.350Z,3444.00
2022-09-02T05:28:10.374Z,3516.00
2022-09-02T05:29:10.331Z,3572.00
2022-09-02T05:30:10.304Z,3572.00
2022-09-02T05:31:10.323Z,3544.00
2022-09-02T05:32:10.371Z,3544.00
2022-09-02T05:33:10.277Z,3580.00
2022-09-02T05:34:10.263Z,3640.00
2022-09-02T05:35:10.266Z,3748.00
2022-09-02T05:36:10.230Z,3848.00
2022-09-02T05:37:10.293Z,3924.00
2022-09-02T05:38:10.237Z,3984.00
2022-09-02T05:39:10.204Z,4052.00
2022-09-02T05:40:10.231Z,4156.00
2022-09-02T05:41:10.175Z,4288.00
2022-09-02T05:42:10.206Z,4468.00
2022-09-02T05:43:10.153Z,4652.00
2022-09-02T05:44:10.212Z,4816.00
2022-09-02T05:45:10.125Z,4940.00
2022-09-02T05:46:10.211Z,5000.00
2022-09-02T05:47:10.108Z,5072.00
2022-09-02T05:48:10.128Z,5180.00
2022-09-02T05:49:10.120Z,5328.00
2022-09-02T05:50:10.143Z,5468.00
2022-09-02T05:51:10.067Z,5596.00
2022-09-02T05:52:10.060Z,5716.00
2022-09-02T05:53:14.326Z,5800.00
2022-09-02T05:54:11.039Z,5904.00
2022-09-02T05:55:10.010Z,6028.00
2022-09-02T05:56:10.288Z,6232.00
2022-09-02T05:57:10.000Z,6472.00
2022-09-02T05:58:10.101Z,6736.00
2022-09-02T05:59:09.981Z,6908.00
2022-09-02T06:00:09.971Z,6992.00
2022-09-02T06:01:09.962Z,7048.00
2022-09-02T06:02:10.046Z,7148.00
2022-09-02T06:03:09.956Z,7348.00
2022-09-02T06:04:09.933Z,7616.00
2022-09-02T06:05:09.906Z,7824.00
2022-09-02T06:06:09.951Z,7928.00
2022-09-02T06:07:11.713Z,7888.00
2022-09-02T06:08:09.934Z,7832.00
2022-09-02T06:09:09.883Z,7788.00
2022-09-02T06:10:09.886Z,7836.00
2022-09-02T06:11:09.858Z,7848.00
2022-09-02T06:12:09.991Z,7736.00
2022-09-02T06:13:09.825Z,8512.00
2022-09-02T06:14:10.048Z,7872.00
2022-09-02T06:15:09.806Z,7984.00
2022-09-02T06:16:09.913Z,8260.00
2022-09-02T06:17:09.778Z,8556.00
2022-09-02T06:18:09.764Z,8824.00
2022-09-02T06:19:09.934Z,9096.00
2022-09-02T06:20:10.022Z,9364.00
2022-09-02T06:21:09.716Z,9688.00
2022-09-02T06:22:09.800Z,9960.00
2022-09-02T06:23:09.712Z,10508.00
2022-09-02T06:24:09.758Z,10476.00
2022-09-02T06:25:09.688Z,10328.00
2022-09-02T06:26:09.709Z,10060.00
2022-09-02T06:27:09.649Z,9884.00
2022-09-02T06:28:09.721Z,9912.00
2022-09-02T06:29:09.653Z,10104.00
2022-09-02T06:30:09.643Z,10316.00
2022-09-02T06:31:09.665Z,12840.00
2022-09-02T06:32:09.661Z,10648.00
2022-09-02T06:33:09.591Z,11800.00
2022-09-02T06:34:09.650Z,15840.00
2022-09-02T06:35:09.583Z,10404.00
2022-09-02T06:36:09.630Z,10496.00
2022-09-02T06:37:09.629Z,15872.00
2022-09-02T06:38:09.574Z,11644.00
2022-09-02T06:39:09.532Z,12028.00
2022-09-02T06:40:09.663Z,13444.00
2022-09-02T06:41:09.502Z,12728.00
2022-09-02T06:42:09.771Z,14220.00
2022-09-02T06:43:09.488Z,13984.00
2022-09-02T06:44:09.521Z,14308.00
2022-09-02T06:45:09.454Z,16832.00
2022-09-02T06:46:09.589Z,22048.00
2022-09-02T06:47:09.447Z,13572.00
2022-09-02T06:48:09.456Z,13756.00
2022-09-02T06:49:09.439Z,14104.00
2022-09-02T06:50:09.467Z,19456.00
2022-09-02T06:51:09.438Z,21728.00
2022-09-02T06:52:09.559Z,21664.00
2022-09-02T06:53:09.374Z,22496.00
2022-09-02T06:54:09.409Z,25888.00
2022-09-02T06:55:09.356Z,33696.00
2022-09-02T06:56:09.382Z,18944.00
2022-09-02T06:57:09.328Z,18272.00
2022-09-02T06:58:09.329Z,18272.00
2022-09-02T06:59:09.311Z,18112.00
2022-09-02T07:00:09.339Z,30144.00
2022-09-02T07:01:09.328Z,34432.00
2022-09-02T07:02:09.527Z,20000.00
2022-09-02T07:03:09.262Z,19552.00
2022-09-02T07:04:09.372Z,20448.00
2022-09-02T07:05:09.243Z,34016.00
2022-09-02T07:06:09.268Z,48896.00
2022-09-02T07:07:09.223Z,49056.00
2022-09-02T07:08:09.337Z,44352.00
2022-09-02T07:09:09.204Z,33216.00
2022-09-02T07:10:09.194Z,37952.00
2022-09-02T07:11:09.175Z,39136.00
2022-09-02T07:12:09.277Z,41888.00
2022-09-02T07:13:09.145Z,42368.00
2022-09-02T07:14:09.213Z,44672.00
2022-09-02T07:15:09.135Z,45440.00
2022-09-02T07:16:09.193Z,46176.00
2022-09-02T07:17:09.176Z,46048.00
2022-09-02T07:18:09.104Z,46240.00
2022-09-02T07:19:14.052Z,48064.00
2022-09-02T07:20:10.140Z,50496.00
2022-09-02T07:21:09.076Z,51360.00
2022-09-02T07:22:09.141Z,49088.00
2022-09-02T07:23:09.048Z,49312.00
2022-09-02T07:24:09.088Z,48864.00
2022-09-02T07:25:09.036Z,51744.00
2022-09-02T07:26:09.052Z,53760.00
2022-09-02T07:27:09.001Z,55328.00
2022-09-02T07:28:09.239Z,56288.00
2022-09-02T07:29:08.982Z,54912.00
2022-09-02T07:30:09.108Z,54912.00
2022-09-02T07:31:08.995Z,57408.00
2022-09-02T07:32:08.955Z,60384.00
2022-09-02T07:33:08.944Z,62304.00
2022-09-02T07:34:08.959Z,63040.00
2022-09-02T07:35:08.924Z,61664.00
2022-09-02T07:36:11.154Z,60832.00
2022-09-02T07:37:10.996Z,61888.00
2022-09-02T07:38:13.411Z,63424.00
2022-09-02T07:39:08.886Z,63552.00
2022-09-02T07:40:09.072Z,64512.00
2022-09-02T07:41:08.848Z,65824.00
2022-09-02T07:42:08.933Z,65376.00
2022-09-02T07:43:08.828Z,65824.00
2022-09-02T07:44:08.926Z,64288.00
2022-09-02T07:45:08.809Z,62624.00
2022-09-02T07:46:08.854Z,65152.00
2022-09-02T07:47:09.072Z,68448.00
2022-09-02T07:48:08.824Z,67680.00
2022-09-02T07:49:09.093Z,67232.00
2022-09-02T07:50:24.304Z,68320.00
2022-09-02T07:51:09.740Z,66560.00
2022-09-02T07:52:08.762Z,66784.00
2022-09-02T07:53:08.723Z,69120.00
2022-09-02T07:54:08.743Z,68448.00
2022-09-02T07:55:13.997Z,65024.00
2022-09-02T07:56:09.701Z,59936.00
2022-09-02T07:57:08.694Z,60448.00
2022-09-02T07:58:08.673Z,58688.00
2022-09-02T07:59:08.726Z,61216.00
2022-09-02T08:00:08.726Z,60544.00
2022-09-02T08:01:08.796Z,62976.00
2022-09-02T08:02:08.651Z,70144.00
2022-09-02T08:03:08.868Z,70464.00
2022-09-02T08:04:09.399Z,72512.00
2022-09-02T08:05:08.609Z,74848.00
2022-09-02T08:06:08.682Z,75968.00
2022-09-02T08:07:08.609Z,75808.00
2022-09-02T08:08:08.580Z,76960.00
2022-09-02T08:09:08.803Z,72928.00
2022-09-02T08:10:08.636Z,73696.00
2022-09-02T08:11:08.572Z,72864.00
2022-09-02T08:12:09.145Z,74240.00
2022-09-02T08:13:08.558Z,77120.00
2022-09-02T08:14:08.586Z,74816.00
2022-09-02T08:15:08.621Z,80384.00
2022-09-02T08:16:08.811Z,79488.00
2022-09-02T08:17:08.693Z,79168.00
2022-09-02T08:18:09.358Z,78272.00
2022-09-02T08:19:10.662Z,81984.00
2022-09-02T08:20:12.292Z,82912.00
2022-09-02T08:21:08.446Z,81536.00
2022-09-02T08:22:08.470Z,75744.00
2022-09-02T08:23:12.283Z,63104.00
2022-09-02T08:24:09.400Z,66976.00
2022-09-02T08:25:08.521Z,82080.00
2022-09-02T08:26:08.425Z,79616.00
2022-09-02T08:27:08.565Z,83584.00
2022-09-02T08:28:08.382Z,83072.00
2022-09-02T08:29:08.356Z,82560.00
2022-09-02T08:30:08.354Z,78752.00
2022-09-02T08:31:08.334Z,79648.00
2022-09-02T08:32:08.337Z,80096.00
2022-09-02T08:33:08.338Z,79872.00
2022-09-02T08:34:08.358Z,81120.00
2022-09-02T08:35:08.397Z,82240.00
2022-09-02T08:36:08.277Z,84512.00
2022-09-02T08:37:08.272Z,81568.00
2022-09-02T08:38:08.255Z,79232.00
2022-09-02T08:39:08.246Z,80768.00
2022-09-02T08:40:08.458Z,81024.00
2022-09-02T08:41:08.227Z,83040.00
2022-09-02T08:42:08.309Z,85248.00
2022-09-02T08:43:08.238Z,87552.00
2022-09-02T08:44:08.197Z,89472.00
2022-09-02T08:45:08.230Z,91904.00
2022-09-02T08:46:08.282Z,98272.00
2022-09-02T08:47:08.173Z,94304.00
2022-09-02T08:48:08.162Z,95648.00
2022-09-02T08:49:08.170Z,93184.00
2022-09-02T08:50:08.182Z,93248.00
2022-09-02T08:51:08.136Z,94880.00
2022-09-02T08:52:08.153Z,92544.00
2022-09-02T08:53:08.124Z,96672.00
2022-09-02T08:54:08.154Z,98080.00
2022-09-02T08:55:08.108Z,96832.00
2022-09-02T08:56:08.076Z,95712.00
2022-09-02T08:57:08.117Z,95520.00
2022-09-02T08:58:08.153Z,95840.00
2022-09-02T08:59:08.050Z,99232.00
2022-09-02T09:00:08.139Z,99072.00
2022-09-02T09:01:08.094Z,100160.00
2022-09-02T09:02:08.214Z,96512.00
2022-09-02T09:03:08.020Z,93952.00
2022-09-02T09:04:08.001Z,92064.00
2022-09-02T09:05:08.002Z,92384.00
2022-09-02T09:06:08.289Z,101344.00
2022-09-02T09:07:07.971Z,101536.00
2022-09-02T09:08:09.757Z,99136.00
2022-09-02T09:09:07.946Z,100256.00
2022-09-02T09:10:07.994Z,99200.00
2022-09-02T09:11:07.934Z,102784.00
2022-09-02T09:12:07.985Z,104288.00
2022-09-02T09:13:07.914Z,100960.00
2022-09-02T09:14:08.507Z,104448.00
2022-09-02T09:15:07.957Z,95776.00
2022-09-02T09:16:08.018Z,93536.00
2022-09-02T09:17:07.866Z,93664.00
2022-09-02T09:18:07.937Z,93632.00
2022-09-02T09:19:08.819Z,100672.00
2022-09-02T09:20:07.960Z,101824.00
2022-09-02T09:21:07.908Z,102784.00
2022-09-02T09:22:07.842Z,98368.00
2022-09-02T09:23:07.810Z,96800.00
2022-09-02T09:24:08.041Z,93088.00
2022-09-02T09:25:07.800Z,95424.00
2022-09-02T09:26:08.173Z,101920.00
2022-09-02T09:27:07.780Z,104288.00
2022-09-02T09:28:07.796Z,109696.00
2022-09-02T09:29:07.762Z,104064.00
2022-09-02T09:30:11.521Z,105152.00
2022-09-02T09:31:08.735Z,105056.00
2022-09-02T09:32:07.781Z,113984.00
2022-09-02T09:33:07.723Z,113696.00
2022-09-02T09:34:07.758Z,118048.00
2022-09-02T09:35:07.718Z,115456.00
2022-09-02T09:36:07.688Z,122720.00
2022-09-02T09:37:07.688Z,117216.00
2022-09-02T09:38:07.670Z,118976.00
2022-09-02T09:39:07.679Z,116480.00
2022-09-02T09:40:07.767Z,111616.00
2022-09-02T09:41:07.642Z,113728.00
2022-09-02T09:42:07.664Z,117376.00
2022-09-02T09:43:14.908Z,115168.00
2022-09-02T09:44:08.676Z,117984.00
2022-09-02T09:45:07.609Z,122016.00
2022-09-02T09:46:07.707Z,119296.00
2022-09-02T09:47:07.611Z,124352.00
2022-09-02T09:48:07.639Z,125120.00
2022-09-02T09:49:07.569Z,119424.00
2022-09-02T09:50:07.700Z,121376.00
2022-09-02T09:51:07.737Z,114720.00
2022-09-02T09:52:07.561Z,107584.00
2022-09-02T09:53:07.524Z,104704.00
2022-09-02T09:54:07.551Z,102720.00
2022-09-02T09:55:07.531Z,104160.00
2022-09-02T09:56:07.501Z,104320.00
2022-09-02T09:57:07.486Z,105184.00
2022-09-02T09:58:07.596Z,108992.00
2022-09-02T09:59:07.485Z,103072.00
2022-09-02T10:00:07.535Z,101632.00
2022-09-02T10:01:07.474Z,98496.00
2022-09-02T10:02:07.497Z,89056.00
2022-09-02T10:03:07.431Z,81280.00
2022-09-02T10:04:20.736Z,82336.00
2022-09-02T10:05:08.462Z,80768.00
2022-09-02T10:06:07.429Z,92320.00
2022-09-02T10:07:07.389Z,87936.00
2022-09-02T10:08:10.111Z,95456.00
2022-09-02T10:09:08.371Z,97984.00
2022-09-02T10:10:07.437Z,91904.00
2022-09-02T10:11:07.346Z,88544.00
2022-09-02T10:12:07.443Z,85824.00
2022-09-02T10:13:07.384Z,76000.00
2022-09-02T10:14:07.377Z,74336.00
2022-09-02T10:15:07.326Z,66208.00
2022-09-02T10:16:07.453Z,66592.00
2022-09-02T10:17:07.285Z,70912.00
2022-09-02T10:18:07.408Z,62432.00
2022-09-02T10:19:07.278Z,60352.00
2022-09-02T10:20:07.344Z,55008.00
2022-09-02T10:21:15.395Z,54432.00
2022-09-02T10:22:08.279Z,61152.00
2022-09-02T10:23:07.230Z,66400.00
2022-09-02T10:24:07.237Z,65536.00
2022-09-02T10:25:07.244Z,68256.00
2022-09-02T10:26:07.213Z,72864.00
2022-09-02T10:27:07.193Z,75616.00
2022-09-02T10:28:07.316Z,66368.00
2022-09-02T10:29:07.171Z,64576.00
2022-09-02T10:30:07.253Z,66016.00
2022-09-02T10:31:07.186Z,64032.00
2022-09-02T10:32:07.156Z,67168.00
2022-09-02T10:33:07.124Z,74112.00
2022-09-02T10:34:07.346Z,74368.00
2022-09-02T10:35:07.115Z,75616.00
2022-09-02T10:36:07.119Z,82080.00
2022-09-02T10:37:07.087Z,89536.00
2022-09-02T10:38:07.503Z,108544.00
2022-09-02T10:39:07.067Z,110880.00
2022-09-02T10:40:07.112Z,114432.00
2022-09-02T10:41:07.039Z,117696.00
2022-09-02T10:42:07.070Z,119008.00
2022-09-02T10:43:07.094Z,115232.00
2022-09-02T10:44:07.188Z,118624.00
2022-09-02T10:45:07.134Z,119712.00
2022-09-02T10:46:07.054Z,114912.00
2022-09-02T10:47:07.106Z,120800.00
2022-09-02T10:48:07.045Z,127040.00
2022-09-02T10:49:06.952Z,125888.00
2022-09-02T10:50:07.049Z,119168.00
2022-09-02T10:51:06.950Z,128960.00
2022-09-02T10:52:07.277Z,117184.00
2022-09-02T10:53:09.378Z,117792.00
2022-09-02T10:54:06.977Z,117888.00
2022-09-02T10:55:06.906Z,123328.00
2022-09-02T10:56:06.936Z,123264.00
2022-09-02T10:57:06.877Z,122336.00
2022-09-02T10:58:06.926Z,121376.00
2022-09-02T10:59:06.867Z,122720.00
2022-09-02T11:00:06.999Z,118048.00
2022-09-02T11:01:06.890Z,120352.00
2022-09-02T11:02:06.993Z,121536.00
2022-09-02T11:03:06.885Z,120352.00
2022-09-02T11:04:07.037Z,116352.00
2022-09-02T11:05:07.821Z,115776.00
2022-09-02T11:06:06.857Z,129472.00
2022-09-02T11:07:06.783Z,128384.00
2022-09-02T11:08:06.815Z,128384.00
2022-09-02T11:09:06.772Z,129344.00
2022-09-02T11:10:06.806Z,122176.00
2022-09-02T11:11:06.752Z,119616.00
2022-09-02T11:12:06.803Z,127808.00
2022-09-02T11:13:06.725Z,116512.00
2022-09-02T11:14:06.777Z,125632.00
2022-09-02T11:15:06.730Z,123552.00
2022-09-02T11:16:06.933Z,118368.00
2022-09-02T11:17:06.715Z,118912.00
2022-09-02T11:18:07.771Z,112000.00
2022-09-02T11:19:06.689Z,121824.00
2022-09-02T11:20:06.676Z,120096.00
2022-09-02T11:21:06.657Z,119104.00
2022-09-02T11:22:06.719Z,123456.00
2022-09-02T11:23:06.649Z,127552.00
2022-09-02T11:24:06.680Z,132544.00
2022-09-02T11:25:06.678Z,117888.00
2022-09-02T11:26:06.791Z,119168.00
2022-09-02T11:27:20.394Z,113120.00
2022-09-02T11:28:07.602Z,109312.00
2022-09-02T11:29:06.584Z,120544.00
2022-09-02T11:30:06.643Z,114080.00
2022-09-02T11:31:06.569Z,117856.00
2022-09-02T11:32:06.870Z,127936.00
2022-09-02T11:33:06.556Z,119520.00
2022-09-02T11:34:06.753Z,119328.00
2022-09-02T11:35:06.545Z,130624.00
2022-09-02T11:36:06.588Z,120992.00
2022-09-02T11:37:06.507Z,114048.00
2022-09-02T11:38:06.570Z,114464.00
2022-09-02T11:39:06.490Z,113792.00
2022-09-02T11:40:30.309Z,121184.00
2022-09-02T11:42:07.585Z,114144.00
2022-09-02T11:43:06.459Z,118944.00
2022-09-02T11:44:06.465Z,111200.00
2022-09-02T11:45:06.480Z,115328.00
2022-09-02T11:46:06.504Z,113856.00
2022-09-02T11:47:06.420Z,112064.00
2022-09-02T11:48:06.442Z,122144.00
2022-09-02T11:49:06.482Z,117856.00
2022-09-02T11:50:06.734Z,120000.00
2022-09-02T11:51:06.382Z,124288.00
2022-09-02T11:52:06.374Z,116416.00
2022-09-02T11:53:06.364Z,121824.00
2022-09-02T11:54:06.374Z,102880.00
2022-09-02T11:55:06.354Z,76480.00
2022-09-02T11:56:06.339Z,108992.00
2022-09-02T11:57:06.348Z,82336.00
2022-09-02T11:58:06.368Z,109888.00
2022-09-02T11:59:06.306Z,117312.00
2022-09-02T12:00:06.369Z,114176.00
2022-09-02T12:01:06.287Z,111648.00
2022-09-02T12:02:06.338Z,120448.00
2022-09-02T12:03:16.854Z,115200.00
2022-09-02T12:04:48.346Z,121952.00
2022-09-02T12:05:07.935Z,122144.00
2022-09-02T12:06:06.393Z,123392.00
2022-09-02T12:07:08.631Z,117568.00
2022-09-02T12:08:06.293Z,114272.00
2022-09-02T12:09:06.229Z,114592.00
2022-09-02T12:10:06.347Z,115872.00
2022-09-02T12:11:06.192Z,116064.00
2022-09-02T12:12:06.315Z,113728.00
2022-09-02T12:13:08.440Z,113952.00
2022-09-02T12:14:08.059Z,120000.00
2022-09-02T12:15:06.410Z,116544.00
2022-09-02T12:16:06.281Z,113184.00
2022-09-02T12:17:06.143Z,122464.00